Terminal Aerodrome Forecast
Issued by NWS

Home | Current Version | Previous Version | Graphics & Text | Print | Product List | Glossary On
Versions: 1 2 3 4 5 6 7 8 9 10 11 12 13 14 15 16 17 18 19
000
FTUS43 KMPX 252320
TAFRNH
TAF
KRNH 252320Z 2600/2624 04008KT P6SM OVC009
     FM260300 02007KT 6SM BR OVC005
     FM260600 04006KT 4SM BR OVC004
     FM261400 06009KT P6SM BKN007 OVC015
     FM261800 07010G16KT P6SM OVC015=

USA.gov is the U.S. government's official web portal to all federal, state and local government web resources and services.